Time;durP1;ratioP1;P1;durP2;ratioP2;P2;SDS_P1;SDS_P2;PMS_P1;PMS_P2;Temp;Humidity;BMP_temperature;BMP_pressure;BME280_temperature;BME280_humidity;BME280_pressure;Samples;Min_cycle;Max_cycle;Signal;HPM_P1;HPM_P2
2023/09/21 00:02:28;;;;;;;2.70;1.25;;;;;;;;;;10381993;22;20762;-71
2023/09/21 00:06:28;;;;;;;1.58;1.33;;;;;;;;;;10385824;22;20293;-71
2023/09/21 00:10:31;;;;;;;3.55;1.13;;;;;;;;;;10383078;22;20115;-71
2023/09/21 00:14:35;;;;;;;1.50;1.20;;;;;;;;;;10387586;22;20114;-71
2023/09/21 00:18:36;;;;;;;1.25;1.15;;;;;;;;;;10374620;22;20003;-71
2023/09/21 00:22:36;;;;;;;1.58;1.30;;;;;;;;;;10383343;22;20022;-71
2023/09/21 00:26:36;;;;;;;2.43;1.20;;;;;;;;;;10387815;22;20114;-72
2023/09/21 00:30:37;;;;;;;1.25;1.23;;;;;;;;;;10414997;22;20343;-71
2023/09/21 00:34:38;;;;;;;1.60;1.35;;;;;;;;;;10426308;22;20368;-71
2023/09/21 00:38:38;;;;;;;1.52;1.17;;;;;;;;;;10428185;22;20419;-73
2023/09/21 00:42:39;;;;;;;1.40;1.30;;;;;;;;;;10428912;22;19999;-71
2023/09/21 00:46:40;;;;;;;1.95;1.35;;;;;;;;;;10431347;22;20000;-71
2023/09/21 00:50:44;;;;;;;4.00;1.20;;;;;;;;;;10429851;22;20197;-71
2023/09/21 00:54:44;;;;;;;3.33;1.40;;;;;;;;;;10406547;22;19996;-71
2023/09/21 00:58:47;;;;;;;1.70;1.30;;;;;;;;;;10434661;22;20023;-70
2023/09/21 01:02:50;;;;;;;1.45;1.27;;;;;;;;;;10431912;22;20234;-70
2023/09/21 01:06:54;;;;;;;2.30;1.33;;;;;;;;;;10436976;22;20057;-73
2023/09/21 01:11:08;;;;;;;1.80;1.10;;;;;;;;;;10432363;22;19999;-71
2023/09/21 01:15:13;;;;;;;1.17;1.17;;;;;;;;;;10425483;22;20102;-72
2023/09/21 01:19:14;;;;;;;1.42;1.33;;;;;;;;;;10429314;22;19991;-73
2023/09/21 01:23:18;;;;;;;1.20;1.10;;;;;;;;;;10434950;22;20046;-70
2023/09/21 01:27:20;;;;;;;1.88;1.30;;;;;;;;;;10437449;22;20003;-70
2023/09/21 01:31:23;;;;;;;1.45;1.23;;;;;;;;;;10428113;22;20019;-70
2023/09/21 01:35:24;;;;;;;1.80;1.27;;;;;;;;;;10427964;22;20037;-70
2023/09/21 01:39:24;;;;;;;2.88;1.52;;;;;;;;;;10416200;22;20011;-71
2023/09/21 01:43:24;;;;;;;1.27;1.17;;;;;;;;;;10401563;22;19995;-71
2023/09/21 01:47:25;;;;;;;1.55;1.20;;;;;;;;;;10400695;22;20026;-71
2023/09/21 01:51:25;;;;;;;1.77;1.10;;;;;;;;;;10404107;22;20003;-71
2023/09/21 01:55:25;;;;;;;1.27;1.17;;;;;;;;;;10402015;22;20377;-71
2023/09/21 01:59:26;;;;;;;1.45;1.30;;;;;;;;;;10406496;22;20222;-71
2023/09/21 02:03:29;;;;;;;1.65;1.33;;;;;;;;;;10404827;22;20050;-71
2023/09/21 02:07:29;;;;;;;1.30;1.20;;;;;;;;;;10402988;22;20027;-71
2023/09/21 02:11:29;;;;;;;3.05;1.40;;;;;;;;;;10400735;22;20011;-69
2023/09/21 02:15:30;;;;;;;1.35;1.25;;;;;;;;;;10401790;22;20034;-70
2023/09/21 02:19:37;;;;;;;1.30;1.20;;;;;;;;;;10400387;22;20003;-68
2023/09/21 02:23:38;;;;;;;1.40;1.23;;;;;;;;;;10400151;22;20019;-69
2023/09/21 02:27:39;;;;;;;2.38;1.10;;;;;;;;;;10400194;22;20030;-69
2023/09/21 02:31:42;;;;;;;1.77;1.30;;;;;;;;;;10397494;22;20019;-70
2023/09/21 02:35:42;;;;;;;2.05;0.98;;;;;;;;;;10400191;22;20646;-69
2023/09/21 02:39:43;;;;;;;2.55;1.20;;;;;;;;;;10400396;22;20081;-70
2023/09/21 02:43:45;;;;;;;1.23;1.10;;;;;;;;;;10398401;22;20203;-70
2023/09/21 02:47:46;;;;;;;2.15;1.15;;;;;;;;;;10397867;22;20492;-70
2023/09/21 02:51:47;;;;;;;1.40;1.17;;;;;;;;;;10396885;22;20035;-70
2023/09/21 02:55:50;;;;;;;1.65;1.20;;;;;;;;;;10399085;22;20003;-70
2023/09/21 02:59:50;;;;;;;2.03;1.20;;;;;;;;;;10398183;22;20427;-70
2023/09/21 03:03:51;;;;;;;1.45;1.17;;;;;;;;;;10395628;22;20568;-70
2023/09/21 03:07:51;;;;;;;2.35;1.20;;;;;;;;;;10396695;22;19991;-70
2023/09/21 03:11:51;;;;;;;1.40;1.00;;;;;;;;;;10395911;22;20373;-70
2023/09/21 03:15:53;;;;;;;1.90;1.00;;;;;;;;;;10392445;22;20238;-71
2023/09/21 03:19:55;;;;;;;2.25;1.20;;;;;;;;;;10394637;22;19998;-70
2023/09/21 03:23:55;;;;;;;2.20;1.02;;;;;;;;;;10393113;22;20387;-70
2023/09/21 03:27:55;;;;;;;1.42;0.95;;;;;;;;;;10395383;22;19995;-70
2023/09/21 03:31:56;;;;;;;1.13;1.00;;;;;;;;;;10388538;22;20812;-70
2023/09/21 03:35:56;;;;;;;1.20;1.10;;;;;;;;;;10392126;22;20297;-71
2023/09/21 03:39:56;;;;;;;1.80;0.93;;;;;;;;;;10391625;22;20018;-71
2023/09/21 03:43:56;;;;;;;1.27;1.05;;;;;;;;;;10387930;22;19999;-70
2023/09/21 03:47:59;;;;;;;1.42;1.10;;;;;;;;;;10388970;22;20117;-70
2023/09/21 03:52:00;;;;;;;1.57;1.30;;;;;;;;;;10392888;22;20006;-70
2023/09/21 03:56:01;;;;;;;1.40;1.15;;;;;;;;;;10389906;22;20735;-71
2023/09/21 04:00:05;;;;;;;1.30;1.13;;;;;;;;;;10392365;22;20398;-70
2023/09/21 04:04:13;;;;;;;2.00;1.20;;;;;;;;;;10389597;22;20727;-71
2023/09/21 04:08:14;;;;;;;2.72;1.50;;;;;;;;;;10391393;22;20014;-70
2023/09/21 04:12:14;;;;;;;1.27;1.13;;;;;;;;;;10387659;22;20717;-70
2023/09/21 04:16:14;;;;;;;2.40;1.33;;;;;;;;;;10387306;22;20018;-70
2023/09/21 04:20:16;;;;;;;2.17;1.33;;;;;;;;;;10390515;22;20098;-70
2023/09/21 04:24:16;;;;;;;2.70;1.10;;;;;;;;;;10385283;22;20011;-70
2023/09/21 04:28:17;;;;;;;1.95;1.20;;;;;;;;;;10382216;22;20008;-71
2023/09/21 04:32:17;;;;;;;2.40;1.20;;;;;;;;;;10387376;22;20026;-70
2023/09/21 04:36:17;;;;;;;2.25;1.20;;;;;;;;;;10384438;22;20176;-71
2023/09/21 04:40:17;;;;;;;1.20;1.00;;;;;;;;;;10381922;22;20031;-70
2023/09/21 04:44:18;;;;;;;1.60;1.48;;;;;;;;;;10389045;22;19999;-70
2023/09/21 04:48:18;;;;;;;2.08;1.40;;;;;;;;;;10389345;22;20011;-70
2023/09/21 04:52:18;;;;;;;3.65;1.27;;;;;;;;;;10388134;22;20570;-73
2023/09/21 04:56:18;;;;;;;2.03;1.17;;;;;;;;;;10390896;22;20018;-73
2023/09/21 05:00:19;;;;;;;1.77;1.10;;;;;;;;;;10389397;22;20049;-73
2023/09/21 05:04:21;;;;;;;1.40;1.20;;;;;;;;;;10392039;22;20229;-73
2023/09/21 05:08:21;;;;;;;2.85;1.40;;;;;;;;;;10393376;22;20523;-73
2023/09/21 05:12:22;;;;;;;1.77;1.30;;;;;;;;;;10392465;22;20026;-73
2023/09/21 05:16:22;;;;;;;1.97;1.37;;;;;;;;;;10391289;22;20015;-73
2023/09/21 05:20:23;;;;;;;1.98;1.35;;;;;;;;;;10389185;22;20065;-73
2023/09/21 05:24:25;;;;;;;1.95;1.30;;;;;;;;;;10390835;22;20003;-73
2023/09/21 05:28:26;;;;;;;1.98;1.42;;;;;;;;;;10394619;22;20026;-73
2023/09/21 05:32:26;;;;;;;2.00;1.45;;;;;;;;;;10391429;22;20023;-73
2023/09/21 05:36:29;;;;;;;4.15;1.23;;;;;;;;;;10391804;22;20474;-72
2023/09/21 05:40:32;;;;;;;4.10;1.40;;;;;;;;;;10391107;22;20042;-73
2023/09/21 05:44:33;;;;;;;6.75;1.23;;;;;;;;;;10391217;22;20038;-73
2023/09/21 05:48:33;;;;;;;4.40;1.50;;;;;;;;;;10390448;22;20011;-73
2023/09/21 05:52:35;;;;;;;1.73;1.48;;;;;;;;;;10393585;22;20574;-73
2023/09/21 05:56:36;;;;;;;3.88;1.60;;;;;;;;;;10392799;22;19995;-74
2023/09/21 06:00:36;;;;;;;3.60;1.60;;;;;;;;;;10389479;22;20570;-74
2023/09/21 06:04:39;;;;;;;3.42;1.42;;;;;;;;;;10388395;22;20011;-74
2023/09/21 06:08:39;;;;;;;1.63;1.40;;;;;;;;;;10391077;22;19995;-73
2023/09/21 06:12:39;;;;;;;2.05;1.30;;;;;;;;;;10389785;22;19999;-73
2023/09/21 06:16:41;;;;;;;4.32;1.23;;;;;;;;;;10393054;22;20069;-73
2023/09/21 06:20:41;;;;;;;2.53;1.40;;;;;;;;;;10394603;22;19999;-74
2023/09/21 06:24:43;;;;;;;3.35;1.33;;;;;;;;;;10392383;22;20441;-74
2023/09/21 06:28:43;;;;;;;4.32;1.50;;;;;;;;;;10392899;22;20030;-74
2023/09/21 06:32:44;;;;;;;2.83;1.50;;;;;;;;;;10391155;22;20026;-74
2023/09/21 06:36:45;;;;;;;5.78;1.70;;;;;;;;;;10393473;22;20021;-74
2023/09/21 06:40:45;;;;;;;1.80;1.35;;;;;;;;;;10394047;22;20019;-73
2023/09/21 06:44:52;;;;;;;2.80;1.10;;;;;;;;;;10392496;22;20037;-74
2023/09/21 06:48:53;;;;;;;2.40;1.25;;;;;;;;;;10389074;22;20077;-74
2023/09/21 06:52:53;;;;;;;1.70;1.13;;;;;;;;;;10390279;22;20700;-73
2023/09/21 06:56:54;;;;;;;2.30;1.48;;;;;;;;;;10388632;22;20036;-74
2023/09/21 07:00:56;;;;;;;2.97;1.15;;;;;;;;;;10387256;22;20041;-74
2023/09/21 07:04:56;;;;;;;2.35;1.20;;;;;;;;;;10391602;22;20000;-73
2023/09/21 07:08:57;;;;;;;1.98;1.30;;;;;;;;;;10390801;22;20075;-75
2023/09/21 07:12:58;;;;;;;2.67;1.17;;;;;;;;;;10389483;22;20360;-73
2023/09/21 07:16:59;;;;;;;1.15;1.05;;;;;;;;;;10389906;22;20019;-74
2023/09/21 07:20:59;;;;;;;1.38;1.02;;;;;;;;;;10389495;22;19999;-74
2023/09/21 07:24:59;;;;;;;2.10;1.10;;;;;;;;;;10390220;22;20026;-74
2023/09/21 07:29:04;;;;;;;1.55;0.90;;;;;;;;;;10381993;22;20061;-74
2023/09/21 07:33:06;;;;;;;0.93;0.82;;;;;;;;;;10386235;22;20053;-73
2023/09/21 07:37:10;;;;;;;2.15;1.17;;;;;;;;;;10386042;22;20117;-74
2023/09/21 07:41:13;;;;;;;3.95;0.95;;;;;;;;;;10384135;22;20007;-74
2023/09/21 07:45:14;;;;;;;2.42;1.05;;;;;;;;;;10385537;22;20011;-75
2023/09/21 07:49:15;;;;;;;1.65;1.20;;;;;;;;;;10387549;22;20119;-74
2023/09/21 07:53:15;;;;;;;2.42;1.00;;;;;;;;;;10384978;22;20102;-75
2023/09/21 07:57:16;;;;;;;3.20;1.57;;;;;;;;;;10360509;22;20010;-74
2023/09/21 08:01:17;;;;;;;3.33;1.70;;;;;;;;;;10384734;22;20023;-73
2023/09/21 08:05:18;;;;;;;3.80;1.70;;;;;;;;;;10383734;22;20261;-74
2023/09/21 08:09:18;;;;;;;4.25;1.70;;;;;;;;;;10385638;22;20011;-74
2023/09/21 08:13:24;;;;;;;1.60;1.50;;;;;;;;;;10382724;22;20451;-74
2023/09/21 08:17:24;;;;;;;1.33;1.15;;;;;;;;;;10388216;22;20011;-74
2023/09/21 08:21:25;;;;;;;1.10;0.95;;;;;;;;;;10389523;22;20003;-74
2023/09/21 08:25:25;;;;;;;1.30;0.98;;;;;;;;;;10386202;22;20106;-73
2023/09/21 08:29:25;;;;;;;1.63;1.13;;;;;;;;;;10393847;22;19999;-74
2023/09/21 08:33:25;;;;;;;1.05;1.05;;;;;;;;;;10388078;22;20253;-74
2023/09/21 08:37:26;;;;;;;2.40;1.10;;;;;;;;;;10386732;22;19995;-73
2023/09/21 08:41:27;;;;;;;1.20;1.00;;;;;;;;;;10388400;22;19999;-74
2023/09/21 08:45:27;;;;;;;1.52;1.00;;;;;;;;;;10385383;22;20019;-74
2023/09/21 08:49:28;;;;;;;2.17;0.93;;;;;;;;;;10389870;22;20043;-74
2023/09/21 08:53:28;;;;;;;1.45;1.00;;;;;;;;;;10387661;22;20698;-75
2023/09/21 08:57:30;;;;;;;2.92;1.17;;;;;;;;;;10386861;22;20003;-74
2023/09/21 09:01:30;;;;;;;1.00;0.90;;;;;;;;;;10387562;22;20015;-75
2023/09/21 09:05:31;;;;;;;1.42;0.90;;;;;;;;;;10386731;22;20508;-74
2023/09/21 09:09:31;;;;;;;3.13;0.80;;;;;;;;;;10360533;22;20094;-74
2023/09/21 09:13:32;;;;;;;3.47;1.02;;;;;;;;;;10388629;22;20078;-74
2023/09/21 09:17:32;;;;;;;1.58;1.08;;;;;;;;;;10385821;22;20035;-74
2023/09/21 09:21:34;;;;;;;2.67;0.90;;;;;;;;;;10387246;22;20635;-73
2023/09/21 09:25:34;;;;;;;1.33;0.90;;;;;;;;;;10385935;22;20352;-74
2023/09/21 09:29:45;;;;;;;1.08;0.90;;;;;;;;;;10387428;22;20177;-74
2023/09/21 09:33:47;;;;;;;1.40;0.80;;;;;;;;;;10384739;22;20939;-75
2023/09/21 09:37:47;;;;;;;1.08;0.90;;;;;;;;;;10385705;22;19995;-74
2023/09/21 09:41:50;;;;;;;3.00;0.77;;;;;;;;;;10388357;22;20014;-74
2023/09/21 09:45:51;;;;;;;1.33;0.85;;;;;;;;;;10387633;22;20011;-74
2023/09/21 09:49:53;;;;;;;1.67;0.85;;;;;;;;;;10384213;22;20447;-73
2023/09/21 09:53:53;;;;;;;1.33;0.80;;;;;;;;;;10388272;22;20689;-75
2023/09/21 09:57:55;;;;;;;0.97;0.73;;;;;;;;;;10383055;22;20411;-74
2023/09/21 10:01:56;;;;;;;1.10;0.95;;;;;;;;;;10384461;22;20240;-74
2023/09/21 10:05:57;;;;;;;2.13;0.80;;;;;;;;;;10389176;22;20007;-75
2023/09/21 10:09:57;;;;;;;0.95;0.80;;;;;;;;;;10387721;22;20007;-74
2023/09/21 10:14:00;;;;;;;1.02;0.80;;;;;;;;;;10384968;22;20366;-74
2023/09/21 10:18:01;;;;;;;2.25;0.95;;;;;;;;;;10382621;22;20015;-75
2023/09/21 10:22:20;;;;;;;1.65;0.80;;;;;;;;;;10387225;22;20061;-74
2023/09/21 10:26:21;;;;;;;1.92;1.05;;;;;;;;;;10385439;22;20887;-74
2023/09/21 10:30:23;;;;;;;4.93;1.00;;;;;;;;;;10381179;22;20010;-74
2023/09/21 10:34:24;;;;;;;1.08;0.80;;;;;;;;;;10385379;22;19996;-74
2023/09/21 10:38:24;;;;;;;3.38;0.73;;;;;;;;;;10384829;22;19991;-75
2023/09/21 10:42:25;;;;;;;1.40;0.70;;;;;;;;;;10383301;22;20014;-75
2023/09/21 10:46:26;;;;;;;0.80;0.80;;;;;;;;;;10384006;22;20035;-75
2023/09/21 10:50:27;;;;;;;1.42;0.77;;;;;;;;;;10385667;22;20966;-74
2023/09/21 10:54:27;;;;;;;1.97;1.00;;;;;;;;;;10389087;22;20477;-74
2023/09/21 10:58:32;;;;;;;1.25;0.70;;;;;;;;;;10388431;22;20226;-74
2023/09/21 11:02:34;;;;;;;0.60;0.60;;;;;;;;;;10384995;22;20033;-74
2023/09/21 11:06:37;;;;;;;0.60;0.60;;;;;;;;;;10387397;22;20002;-74
2023/09/21 11:10:37;;;;;;;1.00;0.90;;;;;;;;;;10383209;22;20019;-74
2023/09/21 11:14:39;;;;;;;0.80;0.70;;;;;;;;;;10386053;22;20007;-74
2023/09/21 11:18:39;;;;;;;1.25;0.73;;;;;;;;;;10386131;22;20022;-74
2023/09/21 11:22:43;;;;;;;1.20;0.70;;;;;;;;;;10377460;22;20007;-75
2023/09/21 11:26:54;;;;;;;0.70;0.70;;;;;;;;;;10387674;22;20094;-75
2023/09/21 11:30:56;;;;;;;0.70;0.70;;;;;;;;;;10384205;22;20057;-73
2023/09/21 11:34:58;;;;;;;2.35;0.70;;;;;;;;;;10382667;22;20077;-75
2023/09/21 11:38:58;;;;;;;0.83;0.80;;;;;;;;;;10384016;22;20007;-74
2023/09/21 11:42:59;;;;;;;1.83;0.75;;;;;;;;;;10385733;22;20004;-75
2023/09/21 11:47:01;;;;;;;0.90;0.60;;;;;;;;;;10385685;22;20034;-74
2023/09/21 11:51:04;;;;;;;1.15;0.75;;;;;;;;;;10382392;22;20011;-75
2023/09/21 11:55:05;;;;;;;0.70;0.70;;;;;;;;;;10386269;22;20004;-74
2023/09/21 11:59:06;;;;;;;1.65;0.88;;;;;;;;;;10385982;22;20692;-75
2023/09/21 12:03:07;;;;;;;1.48;0.90;;;;;;;;;;10384519;22;20019;-74
2023/09/21 12:07:09;;;;;;;1.70;0.70;;;;;;;;;;10382847;22;20015;-75
2023/09/21 12:11:11;;;;;;;0.98;0.68;;;;;;;;;;10383077;22;20080;-70
2023/09/21 12:15:12;;;;;;;2.25;0.80;;;;;;;;;;10380354;22;20019;-71
2023/09/21 12:19:12;;;;;;;0.98;0.73;;;;;;;;;;10381461;22;20316;-71
2023/09/21 12:23:12;;;;;;;0.98;0.80;;;;;;;;;;10378765;22;20783;-70
2023/09/21 12:27:13;;;;;;;2.70;0.70;;;;;;;;;;10377691;22;20018;-71
2023/09/21 12:31:14;;;;;;;0.70;0.70;;;;;;;;;;10377912;22;20937;-70
2023/09/21 12:35:17;;;;;;;0.88;0.60;;;;;;;;;;10379957;22;20027;-71
2023/09/21 12:39:18;;;;;;;;;;;;;;;;;;10380723;22;20026;-71
2023/09/21 12:43:19;;;;;;;1.23;0.85;;;;;;;;;;10379198;22;19914;-71
2023/09/21 12:47:19;;;;;;;2.78;0.80;;;;;;;;;;10373709;22;20039;-71
2023/09/21 12:51:20;;;;;;;1.85;0.70;;;;;;;;;;10375609;22;20033;-71
2023/09/21 12:55:21;;;;;;;2.30;0.90;;;;;;;;;;10373824;22;20489;-70
2023/09/21 12:59:21;;;;;;;2.22;0.90;;;;;;;;;;10382109;22;20460;-72
2023/09/21 13:03:22;;;;;;;0.85;0.80;;;;;;;;;;10376784;22;20011;-72
2023/09/21 13:07:25;;;;;;;1.67;0.98;;;;;;;;;;10383998;22;19995;-72
2023/09/21 13:11:26;;;;;;;3.90;1.17;;;;;;;;;;10380878;22;20014;-73
2023/09/21 13:15:27;;;;;;;1.93;1.40;;;;;;;;;;10382572;22;20114;-72
2023/09/21 13:19:27;;;;;;;1.92;1.75;;;;;;;;;;10381945;22;19995;-72
2023/09/21 13:23:27;;;;;;;3.97;1.60;;;;;;;;;;10381971;22;20113;-72
2023/09/21 13:27:30;;;;;;;5.07;1.63;;;;;;;;;;10383293;22;20025;-72
2023/09/21 13:31:30;;;;;;;;;;;;;;;;;;10378658;22;20077;-71
2023/09/21 13:35:30;;;;;;;3.33;1.77;;;;;;;;;;10359039;22;20655;-72
2023/09/21 13:39:31;;;;;;;4.97;1.70;;;;;;;;;;10379954;22;20336;-72
2023/09/21 13:43:31;;;;;;;1.85;1.60;;;;;;;;;;10380339;22;20038;-71
2023/09/21 13:47:32;;;;;;;4.70;1.80;;;;;;;;;;10377583;22;20019;-71
2023/09/21 13:51:33;;;;;;;2.08;1.60;;;;;;;;;;10380639;22;19999;-71
2023/09/21 13:55:34;;;;;;;2.20;1.67;;;;;;;;;;10382702;22;20369;-70
2023/09/21 13:59:34;;;;;;;1.63;1.50;;;;;;;;;;10381208;22;20101;-70
2023/09/21 14:03:36;;;;;;;4.53;1.57;;;;;;;;;;10379115;22;20015;-70
2023/09/21 14:07:36;;;;;;;4.13;1.30;;;;;;;;;;10379365;22;20023;-69
2023/09/21 14:11:37;;;;;;;2.58;1.30;;;;;;;;;;10377577;22;20452;-69
2023/09/21 14:15:39;;;;;;;2.85;1.40;;;;;;;;;;10378746;22;20218;-69
2023/09/21 14:19:40;;;;;;;2.75;1.40;;;;;;;;;;10377466;22;20062;-70
2023/09/21 14:23:40;;;;;;;2.45;1.27;;;;;;;;;;10376564;22;20102;-70
2023/09/21 14:27:40;;;;;;;1.20;1.10;;;;;;;;;;10380065;22;20003;-70
2023/09/21 14:31:42;;;;;;;3.22;1.17;;;;;;;;;;10376929;22;20746;-70
2023/09/21 14:35:42;;;;;;;2.25;1.10;;;;;;;;;;10380461;22;20079;-70
2023/09/21 14:39:42;;;;;;;0.88;0.82;;;;;;;;;;10379207;22;19999;-71
2023/09/21 14:43:43;;;;;;;1.58;0.90;;;;;;;;;;10380221;22;20029;-71
2023/09/21 14:47:43;;;;;;;2.13;0.90;;;;;;;;;;10378843;22;20011;-70
2023/09/21 14:51:43;;;;;;;0.95;0.90;;;;;;;;;;10378716;22;20740;-70
2023/09/21 14:55:44;;;;;;;0.90;0.90;;;;;;;;;;10380859;22;20082;-71
2023/09/21 14:59:44;;;;;;;1.65;1.00;;;;;;;;;;10381670;22;20071;-71
2023/09/21 15:03:44;;;;;;;2.30;0.90;;;;;;;;;;10377747;22;20018;-71
2023/09/21 15:07:45;;;;;;;2.60;1.00;;;;;;;;;;10377713;22;20006;-70
2023/09/21 15:11:45;;;;;;;1.00;0.90;;;;;;;;;;10378783;22;20003;-71
2023/09/21 15:15:45;;;;;;;2.03;0.90;;;;;;;;;;10375531;22;20007;-71
2023/09/21 15:19:46;;;;;;;1.57;1.00;;;;;;;;;;10374447;22;20049;-71
2023/09/21 15:23:46;;;;;;;1.00;0.90;;;;;;;;;;10375897;22;20039;-71
2023/09/21 15:27:46;;;;;;;2.78;1.10;;;;;;;;;;10377674;22;20034;-70
2023/09/21 15:31:48;;;;;;;0.90;0.90;;;;;;;;;;10375904;22;20015;-71
2023/09/21 15:35:48;;;;;;;2.42;1.08;;;;;;;;;;10373884;22;20007;-71
2023/09/21 15:39:48;;;;;;;1.83;1.00;;;;;;;;;;10373309;22;20022;-70
2023/09/21 15:43:49;;;;;;;2.95;1.10;;;;;;;;;;10379274;22;20003;-71
2023/09/21 15:47:49;;;;;;;2.50;0.90;;;;;;;;;;10367955;22;20875;-71
2023/09/21 15:51:49;;;;;;;1.70;1.00;;;;;;;;;;10375853;22;20011;-71
2023/09/21 15:55:49;;;;;;;2.65;1.20;;;;;;;;;;10376274;22;20004;-70
2023/09/21 15:59:50;;;;;;;2.75;1.30;;;;;;;;;;10373398;22;20003;-70
2023/09/21 16:03:50;;;;;;;1.60;1.30;;;;;;;;;;10376940;22;20617;-71
2023/09/21 16:07:50;;;;;;;1.52;1.08;;;;;;;;;;10353900;22;20015;-71
2023/09/21 16:11:51;;;;;;;4.13;1.30;;;;;;;;;;10379424;22;20007;-70
2023/09/21 16:15:51;;;;;;;2.75;1.08;;;;;;;;;;10377851;22;20011;-71
2023/09/21 16:19:51;;;;;;;2.35;1.35;;;;;;;;;;10381614;22;20685;-71
2023/09/21 16:23:52;;;;;;;1.40;1.10;;;;;;;;;;10379578;22;20047;-71
2023/09/21 16:27:52;;;;;;;4.13;1.35;;;;;;;;;;10380235;22;20007;-71
2023/09/21 16:31:53;;;;;;;1.77;1.37;;;;;;;;;;10375197;22;20500;-71
2023/09/21 16:36:01;;;;;;;3.08;1.30;;;;;;;;;;10381451;22;20750;-71
2023/09/21 16:40:03;;;;;;;1.40;1.20;;;;;;;;;;10376195;22;20266;-71
2023/09/21 16:44:03;;;;;;;3.83;1.35;;;;;;;;;;10381583;22;20765;-71
2023/09/21 16:48:05;;;;;;;2.53;1.20;;;;;;;;;;10381564;22;20015;-71
2023/09/21 16:52:05;;;;;;;4.38;1.30;;;;;;;;;;10387226;22;20003;-74
2023/09/21 16:56:06;;;;;;;1.92;1.08;;;;;;;;;;10385933;22;20003;-75
2023/09/21 17:00:06;;;;;;;2.17;1.17;;;;;;;;;;10383078;22;20004;-74
2023/09/21 17:04:06;;;;;;;1.38;1.00;;;;;;;;;;10386438;22;20956;-74
2023/09/21 17:08:08;;;;;;;1.75;1.00;;;;;;;;;;10388850;22;19999;-74
2023/09/21 17:12:09;;;;;;;0.88;0.88;;;;;;;;;;10385028;22;20098;-74
2023/09/21 17:16:09;;;;;;;2.20;0.70;;;;;;;;;;10381878;22;20017;-73
2023/09/21 17:20:12;;;;;;;0.73;0.50;;;;;;;;;;10383955;22;19999;-74
2023/09/21 17:24:12;;;;;;;3.85;0.57;;;;;;;;;;10387543;22;20045;-73
2023/09/21 17:28:13;;;;;;;3.13;0.50;;;;;;;;;;10385298;22;20070;-73
2023/09/21 17:32:13;;;;;;;0.40;0.40;;;;;;;;;;10382495;22;20022;-73
2023/09/21 17:36:15;;;;;;;0.93;0.50;;;;;;;;;;10381474;22;20090;-73
2023/09/21 17:40:15;;;;;;;3.88;0.50;;;;;;;;;;10379208;22;20003;-73
2023/09/21 17:44:15;;;;;;;0.73;0.67;;;;;;;;;;10381418;22;19995;-73
2023/09/21 17:48:16;;;;;;;1.80;0.40;;;;;;;;;;10378746;22;20023;-72
2023/09/21 17:52:17;;;;;;;1.83;0.50;;;;;;;;;;10380593;22;20677;-73
2023/09/21 17:56:17;;;;;;;0.70;0.55;;;;;;;;;;10382721;22;20007;-73
2023/09/21 18:00:17;;;;;;;0.68;0.50;;;;;;;;;;10376987;22;20690;-73
2023/09/21 18:04:18;;;;;;;1.63;0.60;;;;;;;;;;10377677;22;20007;-73
2023/09/21 18:08:18;;;;;;;0.57;0.47;;;;;;;;;;10375691;22;20611;-73
2023/09/21 18:12:19;;;;;;;1.23;0.63;;;;;;;;;;10378368;22;20007;-73
2023/09/21 18:16:19;;;;;;;1.73;0.68;;;;;;;;;;10379818;22;20018;-73
2023/09/21 18:20:21;;;;;;;1.10;0.68;;;;;;;;;;10380786;22;20605;-74
2023/09/21 18:24:21;;;;;;;1.50;0.70;;;;;;;;;;10378084;22;20820;-71
2023/09/21 18:28:21;;;;;;;2.25;0.60;;;;;;;;;;10377579;22;20098;-71
2023/09/21 18:32:22;;;;;;;1.83;0.70;;;;;;;;;;10372113;22;20078;-71
2023/09/21 18:36:22;;;;;;;0.82;0.60;;;;;;;;;;10381470;22;20080;-71
2023/09/21 18:40:22;;;;;;;3.08;0.85;;;;;;;;;;10378928;22;20397;-71
2023/09/21 18:44:23;;;;;;;2.45;0.77;;;;;;;;;;10382584;22;20023;-72
2023/09/21 18:48:23;;;;;;;4.30;0.80;;;;;;;;;;10376410;22;20007;-72
2023/09/21 18:52:24;;;;;;;2.05;0.75;;;;;;;;;;10379841;22;20014;-71
2023/09/21 18:56:28;;;;;;;2.97;0.68;;;;;;;;;;10378717;22;19999;-71
2023/09/21 19:00:28;;;;;;;4.07;0.90;;;;;;;;;;10376205;22;20015;-71
2023/09/21 19:04:29;;;;;;;2.25;0.70;;;;;;;;;;10375807;22;20007;-72
2023/09/21 19:08:29;;;;;;;3.15;0.93;;;;;;;;;;10378615;22;20486;-72
2023/09/21 19:12:30;;;;;;;0.82;0.63;;;;;;;;;;10380291;22;20008;-72
2023/09/21 19:16:30;;;;;;;0.60;0.60;;;;;;;;;;10379336;22;20083;-72
2023/09/21 19:20:30;;;;;;;1.47;0.83;;;;;;;;;;10382509;22;19995;-72
2023/09/21 19:24:31;;;;;;;2.10;0.70;;;;;;;;;;10378525;22;20691;-71
2023/09/21 19:28:31;;;;;;;1.33;0.60;;;;;;;;;;10380951;22;20003;-72
2023/09/21 19:32:31;;;;;;;1.20;0.60;;;;;;;;;;10374553;22;20022;-71
2023/09/21 19:36:32;;;;;;;2.25;0.65;;;;;;;;;;10376521;22;20339;-70
2023/09/21 19:40:32;;;;;;;2.47;0.65;;;;;;;;;;10371725;22;20404;-71
2023/09/21 19:44:32;;;;;;;2.78;0.88;;;;;;;;;;10375163;22;20003;-71
2023/09/21 19:48:33;;;;;;;0.87;0.60;;;;;;;;;;10375245;22;20034;-71
2023/09/21 19:52:33;;;;;;;1.45;0.50;;;;;;;;;;10373292;22;20307;-71
2023/09/21 19:56:33;;;;;;;18.95;1.40;;;;;;;;;;10377646;22;20330;-70
2023/09/21 20:00:34;;;;;;;0.43;0.43;;;;;;;;;;10377719;22;20063;-71
2023/09/21 20:04:34;;;;;;;1.80;0.70;;;;;;;;;;10379490;22;20629;-71
2023/09/21 20:08:34;;;;;;;0.50;0.50;;;;;;;;;;10378957;22;20006;-70
2023/09/21 20:12:34;;;;;;;1.65;0.50;;;;;;;;;;10374780;22;20260;-71
2023/09/21 20:16:38;;;;;;;0.43;0.43;;;;;;;;;;10378674;22;20082;-72
2023/09/21 20:20:38;;;;;;;0.50;0.50;;;;;;;;;;10377711;22;19999;-72
2023/09/21 20:24:38;;;;;;;0.95;0.50;;;;;;;;;;10335763;22;1034059;-72
2023/09/21 20:28:38;;;;;;;1.15;0.50;;;;;;;;;;10380949;22;20073;-71
2023/09/21 20:32:39;;;;;;;0.70;0.70;;;;;;;;;;10376958;22;20094;-71
2023/09/21 20:36:39;;;;;;;1.75;0.60;;;;;;;;;;10379932;22;19999;-71
2023/09/21 20:40:40;;;;;;;1.05;0.60;;;;;;;;;;10379625;22;20380;-71
2023/09/21 20:44:40;;;;;;;0.60;0.60;;;;;;;;;;10377008;22;20007;-71
2023/09/21 20:48:40;;;;;;;0.80;0.73;;;;;;;;;;10380338;22;20110;-72
2023/09/21 20:52:41;;;;;;;1.47;0.60;;;;;;;;;;10376873;22;20049;-72
2023/09/21 20:56:41;;;;;;;1.73;0.95;;;;;;;;;;10374957;22;20006;-71
2023/09/21 21:00:42;;;;;;;0.80;0.80;;;;;;;;;;10373403;22;20015;-72
2023/09/21 21:04:42;;;;;;;2.15;0.70;;;;;;;;;;10373804;22;20007;-72
2023/09/21 21:08:42;;;;;;;1.05;0.95;;;;;;;;;;10375000;22;19999;-72
2023/09/21 21:12:42;;;;;;;2.00;1.00;;;;;;;;;;10370865;22;20003;-70
2023/09/21 21:16:43;;;;;;;3.10;0.95;;;;;;;;;;10370460;22;20049;-71
2023/09/21 21:20:44;;;;;;;0.82;0.70;;;;;;;;;;10375126;22;19995;-72
2023/09/21 21:24:44;;;;;;;0.70;0.70;;;;;;;;;;10378362;22;20049;-71
2023/09/21 21:28:45;;;;;;;2.00;1.20;;;;;;;;;;10376989;22;20229;-71
2023/09/21 21:32:46;;;;;;;1.10;0.90;;;;;;;;;;10372284;22;20015;-71
2023/09/21 21:36:46;;;;;;;1.45;1.08;;;;;;;;;;10376853;22;20650;-71
2023/09/21 21:40:46;;;;;;;1.10;1.00;;;;;;;;;;10372499;22;20014;-72
2023/09/21 21:44:48;;;;;;;1.17;1.10;;;;;;;;;;10377531;22;20449;-71
2023/09/21 21:48:48;;;;;;;1.35;1.00;;;;;;;;;;10375884;22;20061;-71
2023/09/21 21:52:49;;;;;;;1.40;1.00;;;;;;;;;;10373408;22;20003;-71
2023/09/21 21:56:50;;;;;;;1.57;1.03;;;;;;;;;;10374426;22;20010;-72
2023/09/21 22:00:50;;;;;;;1.45;0.95;;;;;;;;;;10374262;22;20012;-71
2023/09/21 22:04:51;;;;;;;1.53;1.13;;;;;;;;;;10375043;22;20083;-72
2023/09/21 22:08:53;;;;;;;2.10;1.20;;;;;;;;;;10375631;22;20286;-71
2023/09/21 22:12:54;;;;;;;2.67;1.20;;;;;;;;;;10367759;22;20008;-71
2023/09/21 22:16:54;;;;;;;1.10;1.00;;;;;;;;;;10373255;22;20781;-71
2023/09/21 22:20:54;;;;;;;2.50;1.00;;;;;;;;;;10374636;22;20072;-71
2023/09/21 22:24:54;;;;;;;1.88;1.13;;;;;;;;;;10376170;22;20109;-71
2023/09/21 22:28:55;;;;;;;1.00;1.00;;;;;;;;;;10375939;22;19996;-70
2023/09/21 22:32:55;;;;;;;2.73;1.00;;;;;;;;;;10371069;22;20818;-71
2023/09/21 22:36:55;;;;;;;1.75;1.15;;;;;;;;;;10373491;22;20003;-70
2023/09/21 22:40:56;;;;;;;1.73;1.20;;;;;;;;;;10371789;22;20067;-72
2023/09/21 22:44:56;;;;;;;2.20;1.13;;;;;;;;;;10375730;22;20003;-71
2023/09/21 22:48:59;;;;;;;1.30;1.10;;;;;;;;;;10370663;22;20767;-71
2023/09/21 22:53:00;;;;;;;2.35;1.10;;;;;;;;;;10375711;22;20023;-71
2023/09/21 22:57:00;;;;;;;1.83;1.00;;;;;;;;;;10373449;22;20007;-71
2023/09/21 23:01:00;;;;;;;1.23;1.00;;;;;;;;;;10374178;22;20015;-71
2023/09/21 23:05:00;;;;;;;2.53;1.05;;;;;;;;;;10375420;22;20006;-71
2023/09/21 23:09:01;;;;;;;2.67;1.20;;;;;;;;;;10367287;22;20003;-71
2023/09/21 23:13:01;;;;;;;1.75;1.20;;;;;;;;;;10372630;22;20003;-71
2023/09/21 23:17:01;;;;;;;1.73;1.13;;;;;;;;;;10372346;22;20046;-72
2023/09/21 23:21:10;;;;;;;2.35;0.80;;;;;;;;;;10372213;22;20346;-71
2023/09/21 23:25:11;;;;;;;1.10;1.00;;;;;;;;;;10374486;22;20039;-70
2023/09/21 23:29:14;;;;;;;4.07;1.13;;;;;;;;;;10376160;22;20006;-71
2023/09/21 23:33:14;;;;;;;2.13;1.23;;;;;;;;;;10377277;22;20436;-70
2023/09/21 23:37:15;;;;;;;0.90;0.90;;;;;;;;;;10383964;22;20053;-70
2023/09/21 23:41:16;;;;;;;2.58;1.20;;;;;;;;;;10386482;22;20056;-72
2023/09/21 23:45:18;;;;;;;1.10;1.00;;;;;;;;;;10382999;22;20056;-71